sensor_id;sensor_type;location;lat;lon;timestamp;P1;durP1;ratioP1;P2;durP2;ratioP2
56130;SDS011;42000;44.774;20.506;2022-07-04T00:00:01;15.80;;;12.57;;
56130;SDS011;42000;44.774;20.506;2022-07-04T00:02:27;21.65;;;12.75;;
56130;SDS011;42000;44.774;20.506;2022-07-04T00:04:53;18.00;;;11.65;;
56130;SDS011;42000;44.774;20.506;2022-07-04T00:07:19;16.85;;;11.88;;
56130;SDS011;42000;44.774;20.506;2022-07-04T00:09:45;17.40;;;12.38;;
56130;SDS011;42000;44.774;20.506;2022-07-04T00:12:11;20.52;;;12.93;;
56130;SDS011;42000;44.774;20.506;2022-07-04T00:14:37;17.73;;;12.90;;
56130;SDS011;42000;44.774;20.506;2022-07-04T00:17:03;19.98;;;12.98;;
56130;SDS011;42000;44.774;20.506;2022-07-04T00:19:29;20.38;;;13.25;;
56130;SDS011;42000;44.774;20.506;2022-07-04T00:21:55;18.00;;;12.40;;
56130;SDS011;42000;44.774;20.506;2022-07-04T00:24:21;18.40;;;12.65;;
56130;SDS011;42000;44.774;20.506;2022-07-04T00:26:47;21.83;;;13.02;;
56130;SDS011;42000;44.774;20.506;2022-07-04T00:29:13;18.58;;;13.60;;
56130;SDS011;42000;44.774;20.506;2022-07-04T00:31:40;20.48;;;13.38;;
56130;SDS011;42000;44.774;20.506;2022-07-04T00:34:06;17.05;;;12.93;;
56130;SDS011;42000;44.774;20.506;2022-07-04T00:36:32;21.52;;;13.13;;
56130;SDS011;42000;44.774;20.506;2022-07-04T00:38:58;17.85;;;12.65;;
56130;SDS011;42000;44.774;20.506;2022-07-04T00:41:24;20.05;;;13.75;;
56130;SDS011;42000;44.774;20.506;2022-07-04T00:44:01;22.48;;;13.05;;
56130;SDS011;42000;44.774;20.506;2022-07-04T00:46:27;20.20;;;13.50;;
56130;SDS011;42000;44.774;20.506;2022-07-04T00:48:53;20.52;;;12.85;;
56130;SDS011;42000;44.774;20.506;2022-07-04T00:51:19;20.25;;;14.43;;
56130;SDS011;42000;44.774;20.506;2022-07-04T00:53:45;21.33;;;15.13;;
56130;SDS011;42000;44.774;20.506;2022-07-04T00:56:12;19.80;;;13.52;;
56130;SDS011;42000;44.774;20.506;2022-07-04T00:58:38;18.38;;;14.18;;
56130;SDS011;42000;44.774;20.506;2022-07-04T01:01:04;24.15;;;14.30;;
56130;SDS011;42000;44.774;20.506;2022-07-04T01:03:30;29.85;;;18.67;;
56130;SDS011;42000;44.774;20.506;2022-07-04T01:05:57;23.85;;;15.20;;
56130;SDS011;42000;44.774;20.506;2022-07-04T01:08:24;19.88;;;14.90;;
56130;SDS011;42000;44.774;20.506;2022-07-04T01:10:50;21.92;;;13.75;;
56130;SDS011;42000;44.774;20.506;2022-07-04T01:13:20;22.88;;;16.83;;
56130;SDS011;42000;44.774;20.506;2022-07-04T01:15:46;21.85;;;14.50;;
56130;SDS011;42000;44.774;20.506;2022-07-04T01:18:12;19.95;;;13.32;;
56130;SDS011;42000;44.774;20.506;2022-07-04T01:20:38;17.55;;;13.63;;
56130;SDS011;42000;44.774;20.506;2022-07-04T01:23:04;18.52;;;13.68;;
56130;SDS011;42000;44.774;20.506;2022-07-04T01:25:30;19.17;;;13.93;;
56130;SDS011;42000;44.774;20.506;2022-07-04T01:28:00;19.27;;;13.18;;
56130;SDS011;42000;44.774;20.506;2022-07-04T01:30:27;20.48;;;14.20;;
56130;SDS011;42000;44.774;20.506;2022-07-04T01:32:53;20.65;;;13.52;;
56130;SDS011;42000;44.774;20.506;2022-07-04T01:35:19;19.13;;;13.93;;
56130;SDS011;42000;44.774;20.506;2022-07-04T01:37:45;20.77;;;13.27;;
56130;SDS011;42000;44.774;20.506;2022-07-04T01:40:12;16.65;;;12.75;;
56130;SDS011;42000;44.774;20.506;2022-07-04T01:42:41;21.15;;;13.73;;
56130;SDS011;42000;44.774;20.506;2022-07-04T01:45:08;18.55;;;13.23;;
56130;SDS011;42000;44.774;20.506;2022-07-04T01:47:35;19.92;;;13.90;;
56130;SDS011;42000;44.774;20.506;2022-07-04T01:50:02;17.30;;;13.68;;
56130;SDS011;42000;44.774;20.506;2022-07-04T01:52:28;18.75;;;13.25;;
56130;SDS011;42000;44.774;20.506;2022-07-04T01:54:54;19.17;;;13.32;;
56130;SDS011;42000;44.774;20.506;2022-07-04T01:57:20;21.15;;;14.05;;
56130;SDS011;42000;44.774;20.506;2022-07-04T01:59:46;18.08;;;14.25;;
56130;SDS011;42000;44.774;20.506;2022-07-04T02:02:31;23.88;;;13.80;;
56130;SDS011;42000;44.774;20.506;2022-07-04T02:04:57;18.15;;;14.30;;
56130;SDS011;42000;44.774;20.506;2022-07-04T02:07:23;20.90;;;13.48;;
56130;SDS011;42000;44.774;20.506;2022-07-04T02:09:49;19.90;;;14.13;;
56130;SDS011;42000;44.774;20.506;2022-07-04T02:12:15;20.60;;;12.90;;
56130;SDS011;42000;44.774;20.506;2022-07-04T02:14:59;19.50;;;13.85;;
56130;SDS011;42000;44.774;20.506;2022-07-04T02:17:26;16.77;;;12.27;;
56130;SDS011;42000;44.774;20.506;2022-07-04T02:19:52;22.55;;;13.25;;
56130;SDS011;42000;44.774;20.506;2022-07-04T02:22:18;14.90;;;12.30;;
56130;SDS011;42000;44.774;20.506;2022-07-04T02:24:44;22.13;;;13.57;;
56130;SDS011;42000;44.774;20.506;2022-07-04T02:27:10;22.27;;;12.90;;
56130;SDS011;42000;44.774;20.506;2022-07-04T02:29:36;16.00;;;12.48;;
56130;SDS011;42000;44.774;20.506;2022-07-04T02:32:02;15.35;;;11.75;;
56130;SDS011;42000;44.774;20.506;2022-07-04T02:34:29;17.92;;;12.30;;
56130;SDS011;42000;44.774;20.506;2022-07-04T02:36:55;16.27;;;11.32;;
56130;SDS011;42000;44.774;20.506;2022-07-04T02:39:21;18.27;;;11.82;;
56130;SDS011;42000;44.774;20.506;2022-07-04T02:41:47;16.45;;;12.10;;
56130;SDS011;42000;44.774;20.506;2022-07-04T02:44:13;17.63;;;12.57;;
56130;SDS011;42000;44.774;20.506;2022-07-04T02:46:39;18.50;;;11.27;;
56130;SDS011;42000;44.774;20.506;2022-07-04T02:49:05;13.10;;;11.00;;
56130;SDS011;42000;44.774;20.506;2022-07-04T02:51:31;17.17;;;11.60;;
56130;SDS011;42000;44.774;20.506;2022-07-04T02:53:57;16.70;;;11.40;;
56130;SDS011;42000;44.774;20.506;2022-07-04T02:56:23;17.40;;;11.88;;
56130;SDS011;42000;44.774;20.506;2022-07-04T02:58:49;14.35;;;12.27;;
56130;SDS011;42000;44.774;20.506;2022-07-04T03:01:15;18.88;;;12.50;;
56130;SDS011;42000;44.774;20.506;2022-07-04T03:03:43;17.38;;;12.15;;
56130;SDS011;42000;44.774;20.506;2022-07-04T03:06:09;17.88;;;12.18;;
56130;SDS011;42000;44.774;20.506;2022-07-04T03:08:35;15.02;;;11.80;;
56130;SDS011;42000;44.774;20.506;2022-07-04T03:11:02;16.20;;;11.68;;
56130;SDS011;42000;44.774;20.506;2022-07-04T03:13:28;15.73;;;11.35;;
56130;SDS011;42000;44.774;20.506;2022-07-04T03:15:55;16.20;;;12.13;;
56130;SDS011;42000;44.774;20.506;2022-07-04T03:18:21;19.25;;;13.25;;
56130;SDS011;42000;44.774;20.506;2022-07-04T03:20:47;14.45;;;11.82;;
56130;SDS011;42000;44.774;20.506;2022-07-04T03:23:13;21.48;;;13.13;;
56130;SDS011;42000;44.774;20.506;2022-07-04T03:25:39;21.38;;;13.98;;
56130;SDS011;42000;44.774;20.506;2022-07-04T03:28:06;24.27;;;13.05;;
56130;SDS011;42000;44.774;20.506;2022-07-04T03:30:32;21.92;;;14.05;;
56130;SDS011;42000;44.774;20.506;2022-07-04T03:32:58;16.88;;;11.13;;
56130;SDS011;42000;44.774;20.506;2022-07-04T03:35:24;20.20;;;12.23;;
56130;SDS011;42000;44.774;20.506;2022-07-04T03:37:51;23.05;;;13.55;;
56130;SDS011;42000;44.774;20.506;2022-07-04T03:40:20;16.73;;;11.43;;
56130;SDS011;42000;44.774;20.506;2022-07-04T03:42:46;16.05;;;11.68;;
56130;SDS011;42000;44.774;20.506;2022-07-04T03:45:13;17.20;;;10.50;;
56130;SDS011;42000;44.774;20.506;2022-07-04T03:47:39;20.38;;;11.15;;
56130;SDS011;42000;44.774;20.506;2022-07-04T03:50:05;16.10;;;11.00;;
56130;SDS011;42000;44.774;20.506;2022-07-04T03:52:31;19.40;;;10.93;;
56130;SDS011;42000;44.774;20.506;2022-07-04T03:54:57;13.63;;;10.15;;
56130;SDS011;42000;44.774;20.506;2022-07-04T03:57:23;21.77;;;11.55;;
56130;SDS011;42000;44.774;20.506;2022-07-04T03:59:49;15.85;;;10.75;;
56130;SDS011;42000;44.774;20.506;2022-07-04T04:02:15;14.18;;;11.23;;
56130;SDS011;42000;44.774;20.506;2022-07-04T04:04:41;16.55;;;11.35;;
56130;SDS011;42000;44.774;20.506;2022-07-04T04:07:26;16.65;;;11.30;;
56130;SDS011;42000;44.774;20.506;2022-07-04T04:09:52;19.17;;;11.82;;
56130;SDS011;42000;44.774;20.506;2022-07-04T04:12:18;18.88;;;11.40;;
56130;SDS011;42000;44.774;20.506;2022-07-04T04:14:44;17.52;;;11.23;;
56130;SDS011;42000;44.774;20.506;2022-07-04T04:17:10;15.48;;;10.60;;
56130;SDS011;42000;44.774;20.506;2022-07-04T04:19:36;19.05;;;11.15;;
56130;SDS011;42000;44.774;20.506;2022-07-04T04:22:02;16.35;;;10.80;;
56130;SDS011;42000;44.774;20.506;2022-07-04T04:24:30;13.40;;;10.25;;
56130;SDS011;42000;44.774;20.506;2022-07-04T04:26:56;13.48;;;10.38;;
56130;SDS011;42000;44.774;20.506;2022-07-04T04:29:22;18.13;;;10.40;;
56130;SDS011;42000;44.774;20.506;2022-07-04T04:31:48;13.65;;;10.00;;
56130;SDS011;42000;44.774;20.506;2022-07-04T04:34:14;17.10;;;11.05;;
56130;SDS011;42000;44.774;20.506;2022-07-04T04:36:40;15.27;;;10.00;;
56130;SDS011;42000;44.774;20.506;2022-07-04T04:39:06;16.05;;;9.82;;
56130;SDS011;42000;44.774;20.506;2022-07-04T04:41:32;14.63;;;10.82;;
56130;SDS011;42000;44.774;20.506;2022-07-04T04:43:58;18.17;;;10.23;;
56130;SDS011;42000;44.774;20.506;2022-07-04T04:46:24;17.40;;;10.45;;
56130;SDS011;42000;44.774;20.506;2022-07-04T04:48:50;13.00;;;10.10;;
56130;SDS011;42000;44.774;20.506;2022-07-04T04:51:16;15.68;;;10.45;;
56130;SDS011;42000;44.774;20.506;2022-07-04T04:53:42;12.90;;;9.98;;
56130;SDS011;42000;44.774;20.506;2022-07-04T04:56:08;14.07;;;11.20;;
56130;SDS011;42000;44.774;20.506;2022-07-04T04:58:34;16.58;;;10.20;;
56130;SDS011;42000;44.774;20.506;2022-07-04T05:01:00;13.55;;;9.57;;
56130;SDS011;42000;44.774;20.506;2022-07-04T05:03:27;13.23;;;9.82;;
56130;SDS011;42000;44.774;20.506;2022-07-04T05:05:53;14.15;;;9.27;;
56130;SDS011;42000;44.774;20.506;2022-07-04T05:08:20;18.02;;;8.70;;
56130;SDS011;42000;44.774;20.506;2022-07-04T05:10:46;16.75;;;9.70;;
56130;SDS011;42000;44.774;20.506;2022-07-04T05:13:12;11.38;;;9.05;;
56130;SDS011;42000;44.774;20.506;2022-07-04T05:15:38;16.42;;;8.95;;
56130;SDS011;42000;44.774;20.506;2022-07-04T05:18:04;16.38;;;10.02;;
56130;SDS011;42000;44.774;20.506;2022-07-04T05:20:30;16.48;;;9.50;;
56130;SDS011;42000;44.774;20.506;2022-07-04T05:22:57;14.40;;;9.70;;
56130;SDS011;42000;44.774;20.506;2022-07-04T05:25:23;12.43;;;9.48;;
56130;SDS011;42000;44.774;20.506;2022-07-04T05:27:50;16.55;;;9.20;;
56130;SDS011;42000;44.774;20.506;2022-07-04T05:30:16;14.60;;;9.13;;
56130;SDS011;42000;44.774;20.506;2022-07-04T05:32:42;16.20;;;9.95;;
56130;SDS011;42000;44.774;20.506;2022-07-04T05:35:08;27.13;;;10.52;;
56130;SDS011;42000;44.774;20.506;2022-07-04T05:37:35;24.05;;;10.07;;
56130;SDS011;42000;44.774;20.506;2022-07-04T05:40:02;25.30;;;10.80;;
56130;SDS011;42000;44.774;20.506;2022-07-04T05:42:28;20.52;;;9.73;;
56130;SDS011;42000;44.774;20.506;2022-07-04T05:44:54;16.58;;;9.40;;
56130;SDS011;42000;44.774;20.506;2022-07-04T05:47:20;19.17;;;9.35;;
56130;SDS011;42000;44.774;20.506;2022-07-04T05:49:50;17.85;;;9.43;;
56130;SDS011;42000;44.774;20.506;2022-07-04T05:52:16;13.10;;;9.07;;
56130;SDS011;42000;44.774;20.506;2022-07-04T05:54:42;13.98;;;9.15;;
56130;SDS011;42000;44.774;20.506;2022-07-04T05:57:08;16.35;;;9.40;;
56130;SDS011;42000;44.774;20.506;2022-07-04T05:59:34;18.15;;;9.23;;
56130;SDS011;42000;44.774;20.506;2022-07-04T06:02:00;18.52;;;9.52;;
56130;SDS011;42000;44.774;20.506;2022-07-04T06:04:26;17.58;;;9.40;;
56130;SDS011;42000;44.774;20.506;2022-07-04T06:06:52;17.15;;;9.00;;
56130;SDS011;42000;44.774;20.506;2022-07-04T06:09:18;15.77;;;9.30;;
56130;SDS011;42000;44.774;20.506;2022-07-04T06:11:44;18.05;;;9.38;;
56130;SDS011;42000;44.774;20.506;2022-07-04T06:14:11;14.48;;;9.35;;
56130;SDS011;42000;44.774;20.506;2022-07-04T06:16:37;16.90;;;9.40;;
56130;SDS011;42000;44.774;20.506;2022-07-04T06:19:03;14.43;;;9.57;;
56130;SDS011;42000;44.774;20.506;2022-07-04T06:21:29;20.00;;;9.00;;
56130;SDS011;42000;44.774;20.506;2022-07-04T06:23:55;11.63;;;8.80;;
56130;SDS011;42000;44.774;20.506;2022-07-04T06:26:23;16.65;;;8.68;;
56130;SDS011;42000;44.774;20.506;2022-07-04T06:28:49;13.15;;;8.45;;
56130;SDS011;42000;44.774;20.506;2022-07-04T06:31:15;12.05;;;9.02;;
56130;SDS011;42000;44.774;20.506;2022-07-04T06:33:42;16.55;;;8.98;;
56130;SDS011;42000;44.774;20.506;2022-07-04T06:36:26;15.48;;;9.70;;
56130;SDS011;42000;44.774;20.506;2022-07-04T06:38:52;13.50;;;8.45;;
56130;SDS011;42000;44.774;20.506;2022-07-04T06:41:19;21.85;;;10.88;;
56130;SDS011;42000;44.774;20.506;2022-07-04T06:43:45;16.75;;;10.02;;
56130;SDS011;42000;44.774;20.506;2022-07-04T06:46:11;14.25;;;9.55;;
56130;SDS011;42000;44.774;20.506;2022-07-04T06:48:37;13.73;;;8.95;;
56130;SDS011;42000;44.774;20.506;2022-07-04T06:51:03;19.08;;;9.35;;
56130;SDS011;42000;44.774;20.506;2022-07-04T06:53:29;12.23;;;7.85;;
56130;SDS011;42000;44.774;20.506;2022-07-04T06:55:55;14.73;;;8.27;;
56130;SDS011;42000;44.774;20.506;2022-07-04T06:58:21;14.18;;;8.13;;
56130;SDS011;42000;44.774;20.506;2022-07-04T07:00:47;13.77;;;7.95;;
56130;SDS011;42000;44.774;20.506;2022-07-04T07:03:13;17.50;;;8.40;;
56130;SDS011;42000;44.774;20.506;2022-07-04T07:05:39;13.10;;;7.97;;
56130;SDS011;42000;44.774;20.506;2022-07-04T07:08:05;16.10;;;8.10;;
56130;SDS011;42000;44.774;20.506;2022-07-04T07:10:32;14.73;;;7.60;;
56130;SDS011;42000;44.774;20.506;2022-07-04T07:12:58;13.77;;;7.97;;
56130;SDS011;42000;44.774;20.506;2022-07-04T07:15:24;13.55;;;8.00;;
56130;SDS011;42000;44.774;20.506;2022-07-04T07:17:50;17.10;;;8.32;;
56130;SDS011;42000;44.774;20.506;2022-07-04T07:20:17;12.52;;;8.40;;
56130;SDS011;42000;44.774;20.506;2022-07-04T07:22:43;12.15;;;8.35;;
56130;SDS011;42000;44.774;20.506;2022-07-04T07:25:09;14.50;;;8.52;;
56130;SDS011;42000;44.774;20.506;2022-07-04T07:27:36;20.23;;;9.07;;
56130;SDS011;42000;44.774;20.506;2022-07-04T07:30:03;16.48;;;8.82;;
56130;SDS011;42000;44.774;20.506;2022-07-04T07:32:29;15.25;;;8.90;;
56130;SDS011;42000;44.774;20.506;2022-07-04T07:34:55;16.92;;;8.88;;
56130;SDS011;42000;44.774;20.506;2022-07-04T07:37:22;14.07;;;8.55;;
56130;SDS011;42000;44.774;20.506;2022-07-04T07:39:48;15.45;;;8.77;;
56130;SDS011;42000;44.774;20.506;2022-07-04T07:42:14;12.32;;;8.25;;
56130;SDS011;42000;44.774;20.506;2022-07-04T07:44:40;17.08;;;8.43;;
56130;SDS011;42000;44.774;20.506;2022-07-04T07:47:06;17.70;;;9.07;;
56130;SDS011;42000;44.774;20.506;2022-07-04T07:49:33;19.70;;;8.90;;
56130;SDS011;42000;44.774;20.506;2022-07-04T07:51:59;18.80;;;9.05;;
56130;SDS011;42000;44.774;20.506;2022-07-04T07:54:25;19.13;;;8.82;;
56130;SDS011;42000;44.774;20.506;2022-07-04T07:56:51;26.67;;;9.60;;
56130;SDS011;42000;44.774;20.506;2022-07-04T07:59:17;17.67;;;8.55;;
56130;SDS011;42000;44.774;20.506;2022-07-04T08:01:43;24.20;;;9.38;;
56130;SDS011;42000;44.774;20.506;2022-07-04T08:04:09;27.75;;;9.32;;
56130;SDS011;42000;44.774;20.506;2022-07-04T08:06:53;20.70;;;8.88;;
56130;SDS011;42000;44.774;20.506;2022-07-04T08:09:19;21.45;;;9.57;;
56130;SDS011;42000;44.774;20.506;2022-07-04T08:11:45;31.40;;;10.15;;
56130;SDS011;42000;44.774;20.506;2022-07-04T08:14:12;37.83;;;10.10;;
56130;SDS011;42000;44.774;20.506;2022-07-04T08:16:38;20.65;;;8.65;;
56130;SDS011;42000;44.774;20.506;2022-07-04T08:19:05;27.00;;;9.80;;
56130;SDS011;42000;44.774;20.506;2022-07-04T08:21:31;26.98;;;9.18;;
56130;SDS011;42000;44.774;20.506;2022-07-04T08:23:57;19.92;;;8.80;;
56130;SDS011;42000;44.774;20.506;2022-07-04T08:26:23;21.55;;;9.18;;
56130;SDS011;42000;44.774;20.506;2022-07-04T08:28:50;15.15;;;8.80;;
56130;SDS011;42000;44.774;20.506;2022-07-04T08:31:17;17.67;;;9.13;;
56130;SDS011;42000;44.774;20.506;2022-07-04T08:33:44;16.75;;;9.45;;
56130;SDS011;42000;44.774;20.506;2022-07-04T08:36:12;11.98;;;8.60;;
56130;SDS011;42000;44.774;20.506;2022-07-04T08:38:38;14.82;;;8.95;;
56130;SDS011;42000;44.774;20.506;2022-07-04T08:41:04;18.17;;;8.85;;
56130;SDS011;42000;44.774;20.506;2022-07-04T08:43:31;19.45;;;9.10;;
56130;SDS011;42000;44.774;20.506;2022-07-04T08:46:05;11.88;;;8.73;;
56130;SDS011;42000;44.774;20.506;2022-07-04T08:48:31;13.23;;;8.93;;
56130;SDS011;42000;44.774;20.506;2022-07-04T08:51:07;12.20;;;8.57;;
56130;SDS011;42000;44.774;20.506;2022-07-04T08:53:35;20.38;;;9.55;;
56130;SDS011;42000;44.774;20.506;2022-07-04T08:56:04;13.98;;;9.15;;
56130;SDS011;42000;44.774;20.506;2022-07-04T08:58:49;11.40;;;8.43;;
56130;SDS011;42000;44.774;20.506;2022-07-04T09:01:15;14.07;;;9.15;;
56130;SDS011;42000;44.774;20.506;2022-07-04T09:03:43;13.38;;;8.77;;
56130;SDS011;42000;44.774;20.506;2022-07-04T09:06:10;16.73;;;9.52;;
56130;SDS011;42000;44.774;20.506;2022-07-04T09:08:36;17.13;;;9.20;;
56130;SDS011;42000;44.774;20.506;2022-07-04T09:11:03;15.93;;;9.13;;
56130;SDS011;42000;44.774;20.506;2022-07-04T09:13:29;17.38;;;9.93;;
56130;SDS011;42000;44.774;20.506;2022-07-04T09:15:56;22.05;;;10.10;;
56130;SDS011;42000;44.774;20.506;2022-07-04T09:20:48;14.48;;;8.85;;
56130;SDS011;42000;44.774;20.506;2022-07-04T09:23:19;15.25;;;8.55;;
56130;SDS011;42000;44.774;20.506;2022-07-04T09:25:45;23.98;;;9.70;;
56130;SDS011;42000;44.774;20.506;2022-07-04T09:28:12;72.18;;;13.43;;
56130;SDS011;42000;44.774;20.506;2022-07-04T09:30:51;79.85;;;13.60;;
56130;SDS011;42000;44.774;20.506;2022-07-04T09:33:17;32.55;;;10.95;;
56130;SDS011;42000;44.774;20.506;2022-07-04T09:35:44;82.03;;;15.25;;
56130;SDS011;42000;44.774;20.506;2022-07-04T09:38:10;31.40;;;9.50;;
56130;SDS011;42000;44.774;20.506;2022-07-04T09:40:40;58.97;;;13.85;;
56130;SDS011;42000;44.774;20.506;2022-07-04T09:43:25;24.13;;;9.50;;
56130;SDS011;42000;44.774;20.506;2022-07-04T09:46:00;11.07;;;8.05;;
56130;SDS011;42000;44.774;20.506;2022-07-04T09:48:26;24.27;;;8.63;;
56130;SDS011;42000;44.774;20.506;2022-07-04T09:50:52;14.65;;;7.55;;
56130;SDS011;42000;44.774;20.506;2022-07-04T09:53:18;14.13;;;7.28;;
56130;SDS011;42000;44.774;20.506;2022-07-04T09:55:44;17.40;;;6.97;;
56130;SDS011;42000;44.774;20.506;2022-07-04T09:58:12;17.50;;;8.00;;
56130;SDS011;42000;44.774;20.506;2022-07-04T10:00:39;26.05;;;8.07;;
56130;SDS011;42000;44.774;20.506;2022-07-04T10:05:41;14.27;;;7.10;;
56130;SDS011;42000;44.774;20.506;2022-07-04T10:08:07;12.27;;;7.50;;
56130;SDS011;42000;44.774;20.506;2022-07-04T10:10:34;12.02;;;6.65;;
56130;SDS011;42000;44.774;20.506;2022-07-04T10:13:03;12.65;;;7.25;;
56130;SDS011;42000;44.774;20.506;2022-07-04T10:15:30;15.48;;;7.30;;
56130;SDS011;42000;44.774;20.506;2022-07-04T10:17:57;10.93;;;6.55;;
56130;SDS011;42000;44.774;20.506;2022-07-04T10:20:23;11.98;;;6.43;;
56130;SDS011;42000;44.774;20.506;2022-07-04T10:22:49;14.80;;;6.70;;
56130;SDS011;42000;44.774;20.506;2022-07-04T10:25:15;11.73;;;6.35;;
56130;SDS011;42000;44.774;20.506;2022-07-04T10:27:41;14.65;;;6.95;;
56130;SDS011;42000;44.774;20.506;2022-07-04T10:30:09;18.55;;;6.80;;
56130;SDS011;42000;44.774;20.506;2022-07-04T10:32:36;22.13;;;7.65;;
56130;SDS011;42000;44.774;20.506;2022-07-04T10:35:03;13.52;;;6.97;;
56130;SDS011;42000;44.774;20.506;2022-07-04T10:40:38;11.88;;;7.18;;
56130;SDS011;42000;44.774;20.506;2022-07-04T10:43:00;18.92;;;7.38;;
56130;SDS011;42000;44.774;20.506;2022-07-04T10:45:32;16.90;;;7.70;;
56130;SDS011;42000;44.774;20.506;2022-07-04T10:47:59;25.83;;;8.15;;
56130;SDS011;42000;44.774;20.506;2022-07-04T10:50:28;30.90;;;8.82;;
56130;SDS011;42000;44.774;20.506;2022-07-04T10:53:10;17.25;;;7.30;;
56130;SDS011;42000;44.774;20.506;2022-07-04T10:55:36;22.15;;;7.82;;
56130;SDS011;42000;44.774;20.506;2022-07-04T10:58:02;22.25;;;7.18;;
56130;SDS011;42000;44.774;20.506;2022-07-04T11:00:28;13.90;;;7.03;;
56130;SDS011;42000;44.774;20.506;2022-07-04T11:03:05;12.60;;;6.70;;
56130;SDS011;42000;44.774;20.506;2022-07-04T11:05:40;11.32;;;6.75;;
56130;SDS011;42000;44.774;20.506;2022-07-04T11:08:06;12.70;;;7.22;;
56130;SDS011;42000;44.774;20.506;2022-07-04T11:10:36;12.70;;;6.68;;
56130;SDS011;42000;44.774;20.506;2022-07-04T11:13:05;14.13;;;7.68;;
56130;SDS011;42000;44.774;20.506;2022-07-04T11:18:02;16.17;;;7.82;;
56130;SDS011;42000;44.774;20.506;2022-07-04T11:20:29;13.57;;;7.15;;
56130;SDS011;42000;44.774;20.506;2022-07-04T11:23:09;15.55;;;6.90;;
56130;SDS011;42000;44.774;20.506;2022-07-04T11:25:35;17.33;;;7.30;;
56130;SDS011;42000;44.774;20.506;2022-07-04T11:28:20;23.33;;;7.90;;
56130;SDS011;42000;44.774;20.506;2022-07-04T11:30:50;20.83;;;7.80;;
56130;SDS011;42000;44.774;20.506;2022-07-04T11:33:21;13.65;;;6.65;;
56130;SDS011;42000;44.774;20.506;2022-07-04T11:41:10;11.93;;;6.10;;
56130;SDS011;42000;44.774;20.506;2022-07-04T11:43:54;13.63;;;6.10;;
56130;SDS011;42000;44.774;20.506;2022-07-04T11:46:39;13.98;;;6.38;;
56130;SDS011;42000;44.774;20.506;2022-07-04T11:49:11;28.52;;;7.30;;
56130;SDS011;42000;44.774;20.506;2022-07-04T11:51:44;20.15;;;6.35;;
56130;SDS011;42000;44.774;20.506;2022-07-04T11:54:11;21.17;;;6.78;;
56130;SDS011;42000;44.774;20.506;2022-07-04T11:56:38;19.45;;;7.15;;
56130;SDS011;42000;44.774;20.506;2022-07-04T11:59:11;16.15;;;6.35;;
56130;SDS011;42000;44.774;20.506;2022-07-04T12:01:37;18.85;;;6.45;;
56130;SDS011;42000;44.774;20.506;2022-07-04T12:06:39;17.13;;;6.70;;
56130;SDS011;42000;44.774;20.506;2022-07-04T12:09:06;15.32;;;6.88;;
56130;SDS011;42000;44.774;20.506;2022-07-04T12:14:16;16.15;;;7.32;;
56130;SDS011;42000;44.774;20.506;2022-07-04T12:16:42;10.55;;;5.80;;
56130;SDS011;42000;44.774;20.506;2022-07-04T12:19:09;11.93;;;5.90;;
56130;SDS011;42000;44.774;20.506;2022-07-04T12:21:35;20.38;;;6.40;;
56130;SDS011;42000;44.774;20.506;2022-07-04T12:24:01;19.70;;;7.00;;
56130;SDS011;42000;44.774;20.506;2022-07-04T12:26:29;24.65;;;6.85;;
56130;SDS011;42000;44.774;20.506;2022-07-04T12:28:55;10.27;;;5.55;;
56130;SDS011;42000;44.774;20.506;2022-07-04T12:31:43;13.65;;;6.28;;
56130;SDS011;42000;44.774;20.506;2022-07-04T12:34:15;20.80;;;6.70;;
56130;SDS011;42000;44.774;20.506;2022-07-04T12:36:51;22.27;;;6.47;;
56130;SDS011;42000;44.774;20.506;2022-07-04T12:39:30;12.35;;;6.47;;
56130;SDS011;42000;44.774;20.506;2022-07-04T12:42:03;31.80;;;7.65;;
56130;SDS011;42000;44.774;20.506;2022-07-04T12:44:30;31.25;;;8.70;;
56130;SDS011;42000;44.774;20.506;2022-07-04T12:46:56;72.28;;;12.43;;
56130;SDS011;42000;44.774;20.506;2022-07-04T12:49:22;16.40;;;7.20;;
56130;SDS011;42000;44.774;20.506;2022-07-04T12:51:48;17.20;;;6.15;;
56130;SDS011;42000;44.774;20.506;2022-07-04T12:54:14;17.45;;;6.40;;
56130;SDS011;42000;44.774;20.506;2022-07-04T12:56:42;25.77;;;8.02;;
56130;SDS011;42000;44.774;20.506;2022-07-04T13:01:34;11.70;;;6.50;;
56130;SDS011;42000;44.774;20.506;2022-07-04T13:04:00;9.70;;;5.57;;
56130;SDS011;42000;44.774;20.506;2022-07-04T13:06:26;17.85;;;7.95;;
56130;SDS011;42000;44.774;20.506;2022-07-04T13:08:53;13.32;;;6.70;;
56130;SDS011;42000;44.774;20.506;2022-07-04T13:11:19;11.95;;;7.22;;
56130;SDS011;42000;44.774;20.506;2022-07-04T13:14:04;13.82;;;6.95;;
56130;SDS011;42000;44.774;20.506;2022-07-04T13:16:31;12.27;;;6.90;;
56130;SDS011;42000;44.774;20.506;2022-07-04T13:18:57;15.20;;;7.57;;
56130;SDS011;42000;44.774;20.506;2022-07-04T13:21:23;16.50;;;7.60;;
56130;SDS011;42000;44.774;20.506;2022-07-04T13:23:50;16.60;;;6.88;;
56130;SDS011;42000;44.774;20.506;2022-07-04T13:26:16;12.18;;;6.10;;
56130;SDS011;42000;44.774;20.506;2022-07-04T13:28:42;13.88;;;7.30;;
56130;SDS011;42000;44.774;20.506;2022-07-04T13:31:08;12.35;;;6.70;;
56130;SDS011;42000;44.774;20.506;2022-07-04T13:33:34;10.65;;;6.68;;
56130;SDS011;42000;44.774;20.506;2022-07-04T13:36:00;16.38;;;7.60;;
56130;SDS011;42000;44.774;20.506;2022-07-04T13:38:26;16.90;;;7.20;;
56130;SDS011;42000;44.774;20.506;2022-07-04T13:40:54;13.85;;;7.43;;
56130;SDS011;42000;44.774;20.506;2022-07-04T13:43:22;12.63;;;7.03;;
56130;SDS011;42000;44.774;20.506;2022-07-04T13:45:48;12.02;;;7.70;;
56130;SDS011;42000;44.774;20.506;2022-07-04T13:48:14;13.60;;;7.45;;
56130;SDS011;42000;44.774;20.506;2022-07-04T13:50:40;9.27;;;7.60;;
56130;SDS011;42000;44.774;20.506;2022-07-04T13:53:07;21.27;;;8.63;;
56130;SDS011;42000;44.774;20.506;2022-07-04T13:55:33;16.52;;;7.60;;
56130;SDS011;42000;44.774;20.506;2022-07-04T13:58:06;16.40;;;7.28;;
56130;SDS011;42000;44.774;20.506;2022-07-04T14:00:34;10.85;;;6.68;;
56130;SDS011;42000;44.774;20.506;2022-07-04T14:03:01;14.38;;;6.80;;
56130;SDS011;42000;44.774;20.506;2022-07-04T14:05:28;10.52;;;6.65;;
56130;SDS011;42000;44.774;20.506;2022-07-04T14:07:55;10.77;;;7.00;;
56130;SDS011;42000;44.774;20.506;2022-07-04T14:10:22;11.70;;;7.00;;
56130;SDS011;42000;44.774;20.506;2022-07-04T14:12:49;13.65;;;6.63;;
56130;SDS011;42000;44.774;20.506;2022-07-04T14:15:15;12.35;;;6.65;;
56130;SDS011;42000;44.774;20.506;2022-07-04T14:17:42;14.57;;;6.50;;
56130;SDS011;42000;44.774;20.506;2022-07-04T14:20:09;11.52;;;6.75;;
56130;SDS011;42000;44.774;20.506;2022-07-04T14:22:38;14.88;;;6.38;;
56130;SDS011;42000;44.774;20.506;2022-07-04T14:25:05;8.60;;;6.90;;
56130;SDS011;42000;44.774;20.506;2022-07-04T14:27:31;12.52;;;6.70;;
56130;SDS011;42000;44.774;20.506;2022-07-04T14:29:57;12.07;;;7.15;;
56130;SDS011;42000;44.774;20.506;2022-07-04T14:32:24;11.73;;;6.93;;
56130;SDS011;42000;44.774;20.506;2022-07-04T14:34:50;9.85;;;7.10;;
56130;SDS011;42000;44.774;20.506;2022-07-04T14:37:16;11.35;;;6.78;;
56130;SDS011;42000;44.774;20.506;2022-07-04T14:39:42;12.00;;;6.78;;